createdAt,value
2019-05-12T00:46:48.673Z,98.17
2019-05-12T00:49:18.753Z,98.18
2019-05-12T00:51:50.016Z,98.91
2019-05-12T00:54:18.588Z,99.05
2019-05-12T00:56:48.263Z,98.98
2019-05-12T01:09:49.063Z,99.98
2019-05-12T01:12:18.009Z,99.88
2019-05-12T01:21:37.656Z,100.00
2019-05-12T01:27:28.761Z,100.00
2019-05-12T01:29:58.393Z,100.00
2019-05-12T01:32:38.860Z,100.00
2019-05-12T01:35:08.400Z,99.33
2019-05-12T01:37:38.328Z,99.29
2019-05-12T01:51:01.317Z,100.00
2019-05-12T01:53:29.776Z,100.00
2019-05-12T02:09:59.222Z,99.81
2019-05-12T02:12:30.227Z,100.00
2019-05-12T02:14:58.956Z,100.00
2019-05-12T02:17:28.337Z,100.00
2019-05-12T02:19:58.590Z,99.37
2019-05-12T02:22:27.895Z,99.31
2019-05-12T02:24:58.417Z,98.05
2019-05-12T02:27:28.382Z,98.40
2019-05-12T02:29:58.542Z,98.49
2019-05-12T02:32:35.482Z,98.93
2019-05-12T02:34:55.942Z,98.06
2019-05-12T02:37:26.265Z,99.66
2019-05-12T02:39:56.540Z,98.22
2019-05-12T02:42:27.872Z,99.27
2019-05-12T02:45:40.221Z,98.52
2019-05-12T02:48:08.274Z,98.55
2019-05-12T02:50:37.498Z,99.42
2019-05-12T02:53:06.190Z,98.26
2019-05-12T02:55:35.722Z,98.90
2019-05-12T02:58:05.278Z,99.29
2019-05-12T03:00:35.601Z,99.98
2019-05-12T03:03:06.458Z,99.96
2019-05-12T03:05:35.645Z,99.43
2019-05-12T03:17:07.636Z,99.75
2019-05-12T03:19:36.239Z,99.59
2019-05-12T03:38:45.112Z,100.00
2019-05-12T03:41:14.429Z,100.00
2019-05-12T03:43:44.546Z,100.00
2019-05-12T03:46:10.638Z,100.00
2019-05-12T03:48:38.650Z,100.00
2019-05-12T03:51:06.733Z,100.00
2019-05-12T03:53:35.509Z,100.00
2019-05-12T03:56:06.369Z,99.55
2019-05-12T04:08:45.527Z,100.00
2019-05-12T04:11:14.726Z,100.00
2019-05-12T04:13:45.181Z,100.00
2019-05-12T04:16:16.296Z,100.00
2019-05-12T04:18:45.076Z,100.00
2019-05-12T04:21:15.713Z,100.00
2019-05-12T04:23:48.950Z,100.00
2019-05-12T04:26:17.559Z,100.00
2019-05-12T04:29:35.005Z,100.00
2019-05-12T04:39:34.096Z,100.00
2019-05-12T04:42:36.521Z,100.00
2019-05-12T04:45:05.234Z,100.00
2019-05-12T04:47:34.905Z,100.00
2019-05-12T04:50:06.935Z,100.00
2019-05-12T04:53:14.423Z,100.00
2019-05-12T04:56:35.831Z,100.00
2019-05-12T04:59:04.979Z,98.44
2019-05-12T05:05:56.314Z,97.25
2019-05-12T05:12:13.911Z,95.14
2019-05-12T05:14:44.635Z,96.87
2019-05-12T05:18:34.388Z,95.59
2019-05-12T05:20:17.882Z,95.17
2019-05-12T05:22:46.064Z,95.96
2019-05-12T05:25:14.621Z,95.32
2019-05-12T05:27:49.773Z,96.23
2019-05-12T05:30:58.403Z,94.83
2019-05-12T05:33:38.141Z,94.59
2019-05-12T05:36:15.205Z,93.63
2019-05-12T05:38:51.076Z,92.52
2019-05-12T05:41:20.887Z,92.19
2019-05-12T05:43:54.289Z,92.57
2019-05-12T05:46:20.364Z,92.27
2019-05-12T05:48:48.242Z,92.44
2019-05-12T05:51:16.152Z,92.49
2019-05-12T05:53:44.351Z,91.68
2019-05-12T05:56:14.684Z,90.63
2019-05-12T05:58:47.111Z,91.22
2019-05-12T06:01:13.730Z,91.10
2019-05-12T06:03:41.352Z,90.78
2019-05-12T06:06:12.441Z,89.56
2019-05-12T06:08:38.872Z,90.45
2019-05-12T06:11:08.603Z,88.64
2019-05-12T06:13:36.377Z,89.38
2019-05-12T06:16:04.569Z,87.83
2019-05-12T06:18:33.435Z,87.07
2019-05-12T06:21:03.476Z,87.87
2019-05-12T06:23:34.890Z,85.75
2019-05-12T06:26:03.959Z,85.79
2019-05-12T06:28:31.135Z,86.55
2019-05-12T06:31:00.078Z,84.93
2019-05-12T06:33:31.475Z,85.71
2019-05-12T06:35:57.681Z,85.37
2019-05-12T06:38:25.584Z,85.18
2019-05-12T06:40:54.435Z,82.88
2019-05-12T06:43:24.275Z,84.59
2019-05-12T06:45:54.332Z,82.58
2019-05-12T06:48:28.395Z,83.03
2019-05-12T06:50:53.398Z,82.89
2019-05-12T06:53:29.047Z,82.62
2019-05-12T06:55:50.561Z,83.44
2019-05-12T06:58:26.382Z,83.21
2019-05-12T07:00:48.148Z,82.56
2019-05-12T07:03:19.580Z,82.29
2019-05-12T07:05:45.729Z,80.39
2019-05-12T07:08:17.895Z,79.19
2019-05-12T07:10:46.643Z,78.04
2019-05-12T07:13:14.789Z,78.26
2019-05-12T07:15:43.904Z,79.62
2019-05-12T07:18:17.239Z,80.14
2019-05-12T07:20:43.693Z,78.80
2019-05-12T07:23:14.035Z,77.87
2019-05-12T07:25:41.263Z,79.40
2019-05-12T07:28:09.154Z,75.26
2019-05-12T07:30:37.061Z,77.07
2019-05-12T07:33:05.140Z,77.53
2019-05-12T07:35:33.942Z,80.54
2019-05-12T07:38:04.571Z,77.86
2019-05-12T07:40:34.707Z,77.20
2019-05-12T07:43:03.990Z,75.67
2019-05-12T07:45:33.433Z,74.82
2019-05-12T07:48:08.174Z,72.88
2019-05-12T07:50:31.221Z,71.85
2019-05-12T07:52:59.129Z,76.45
2019-05-12T07:55:27.004Z,78.50
2019-05-12T07:57:58.747Z,78.25
2019-05-12T08:00:25.722Z,78.22
2019-05-12T08:02:54.102Z,78.76
2019-05-12T08:05:23.907Z,81.11
2019-05-12T08:07:53.539Z,79.79
2019-05-12T08:10:23.384Z,81.12
2019-05-12T08:12:55.851Z,81.18
2019-05-12T08:15:20.587Z,82.16
2019-05-12T08:17:49.322Z,80.34
2019-05-12T08:20:18.204Z,76.18
2019-05-12T08:22:46.099Z,73.25
2019-05-12T08:25:18.826Z,74.22
2019-05-12T08:27:45.139Z,72.80
2019-05-12T08:30:13.967Z,76.41
2019-05-12T08:32:44.351Z,77.97
2019-05-12T08:35:14.015Z,76.91
2019-05-12T08:37:43.937Z,72.07
2019-05-12T08:40:11.177Z,73.98
2019-05-12T08:42:39.097Z,73.44
2019-05-12T08:45:08.210Z,70.08
2019-05-12T08:47:38.901Z,68.32
2019-05-12T08:50:06.037Z,68.39
2019-05-12T08:52:37.138Z,61.78
2019-05-12T08:55:04.265Z,63.87
2019-05-12T08:57:40.526Z,66.14
2019-05-12T09:00:06.704Z,68.18
2019-05-12T09:02:34.290Z,66.32
2019-05-12T09:05:04.428Z,67.19
2019-05-12T09:07:38.260Z,64.31
2019-05-12T09:10:01.091Z,64.17
2019-05-12T09:12:29.055Z,63.55
2019-05-12T09:14:56.974Z,63.85
2019-05-12T09:17:24.866Z,62.93
2019-05-12T09:19:56.612Z,62.70
2019-05-12T09:22:24.144Z,60.49
2019-05-12T09:24:53.388Z,60.41
2019-05-12T09:27:21.476Z,59.71
2019-05-12T09:29:49.413Z,64.17
2019-05-12T09:32:19.663Z,66.31
2019-05-12T09:34:52.920Z,64.30
2019-05-12T09:37:18.038Z,65.16
2019-05-12T09:39:47.449Z,67.27
2019-05-12T09:42:19.291Z,67.61
2019-05-12T09:44:45.164Z,64.17
2019-05-12T09:47:22.733Z,61.21
2019-05-12T09:49:44.431Z,62.23
2019-05-12T09:52:13.941Z,60.62
2019-05-12T09:54:44.260Z,62.83
2019-05-12T09:57:13.645Z,66.57
2019-05-12T09:59:45.880Z,65.22
2019-05-12T10:02:16.526Z,64.91
2019-05-12T10:04:40.720Z,65.29
2019-05-12T10:07:08.712Z,67.66
2019-05-12T10:09:36.581Z,66.68
2019-05-12T10:12:05.528Z,65.93
2019-05-12T10:14:33.727Z,66.51
2019-05-12T10:17:03.663Z,66.89
2019-05-12T10:19:31.276Z,65.40
2019-05-12T10:21:59.671Z,69.82
2019-05-12T10:24:33.693Z,69.80
2019-05-12T10:26:57.290Z,67.73
2019-05-12T10:29:30.571Z,68.40
2019-05-12T10:31:54.793Z,68.89
2019-05-12T10:34:23.999Z,64.56
2019-05-12T10:36:53.852Z,59.45
2019-05-12T10:39:24.132Z,60.30
2019-05-12T10:41:53.909Z,59.49
2019-05-12T10:44:21.376Z,59.00
2019-05-12T10:46:53.738Z,56.65
2019-05-12T10:49:23.305Z,57.51
2019-05-12T10:51:53.796Z,57.50
2019-05-12T10:54:21.064Z,57.09
2019-05-12T10:56:48.975Z,55.75
2019-05-12T10:59:29.198Z,53.34
2019-05-12T11:01:49.079Z,58.48
2019-05-12T11:04:16.317Z,58.97
2019-05-12T11:06:48.387Z,58.58
2019-05-12T11:09:14.045Z,58.31
2019-05-12T11:11:46.692Z,58.76
2019-05-12T11:14:14.097Z,58.15
2019-05-12T11:16:42.492Z,59.42
2019-05-12T11:19:13.582Z,60.62
2019-05-12T11:21:40.970Z,58.98
2019-05-12T11:24:08.912Z,57.70
2019-05-12T11:26:36.805Z,59.34
2019-05-12T11:29:04.773Z,59.08
2019-05-12T11:31:33.455Z,60.67
2019-05-12T11:34:01.556Z,60.25
2019-05-12T11:36:29.511Z,60.55
2019-05-12T11:38:57.517Z,59.73
2019-05-12T11:41:28.377Z,58.77
2019-05-12T11:43:55.113Z,60.59
2019-05-12T11:46:23.881Z,58.85
2019-05-12T11:48:53.843Z,56.16
2019-05-12T11:51:26.994Z,56.99
2019-05-12T11:53:51.257Z,57.62
2019-05-12T11:56:19.140Z,53.58
2019-05-12T11:58:51.331Z,54.81
2019-05-12T12:01:18.576Z,53.62
2019-05-12T12:03:46.512Z,53.01
2019-05-12T12:06:14.456Z,54.55
2019-05-12T12:08:44.174Z,51.81
2019-05-12T12:11:18.194Z,53.42
2019-05-12T12:13:41.569Z,47.88
2019-05-12T12:16:11.450Z,52.21
2019-05-12T12:18:39.078Z,46.82
2019-05-12T12:21:07.879Z,49.27
2019-05-12T12:23:35.979Z,47.91
2019-05-12T12:26:04.077Z,47.88
2019-05-12T12:28:34.322Z,49.10
2019-05-12T12:31:05.090Z,49.71
2019-05-12T12:33:38.707Z,49.99
2019-05-12T12:36:01.005Z,50.10
2019-05-12T12:38:28.900Z,48.74
2019-05-12T12:40:56.808Z,48.37
2019-05-12T12:43:24.908Z,48.54
2019-05-12T12:46:10.604Z,47.30
2019-05-12T12:48:39.625Z,47.38
2019-05-12T12:51:07.592Z,44.75
2019-05-12T12:53:36.580Z,45.99
2019-05-12T12:56:04.587Z,50.63
2019-05-12T12:58:34.518Z,53.98
2019-05-12T13:01:03.718Z,49.75
2019-05-12T13:03:33.605Z,48.41
2019-05-12T13:06:01.500Z,49.70
2019-05-12T13:08:29.375Z,44.11
2019-05-12T13:10:57.287Z,40.91
2019-05-12T13:13:25.299Z,41.11
2019-05-12T13:15:53.462Z,42.13
2019-05-12T13:18:27.601Z,42.22
2019-05-12T13:20:51.181Z,42.71
2019-05-12T13:23:19.128Z,42.37
2019-05-12T13:25:50.776Z,43.74
2019-05-12T13:28:19.003Z,43.08
2019-05-12T13:30:49.560Z,41.55
2019-05-12T13:33:18.233Z,40.98
2019-05-12T13:35:50.170Z,39.96
2019-05-12T13:38:15.425Z,39.66
2019-05-12T13:40:44.241Z,39.80
2019-05-12T13:43:15.598Z,39.07
2019-05-12T13:45:43.947Z,41.43
2019-05-12T13:48:15.795Z,39.29
2019-05-12T13:50:43.329Z,37.49
2019-05-12T13:53:11.112Z,38.01
2019-05-12T13:55:39.459Z,37.91
2019-05-12T13:58:08.648Z,39.24
2019-05-12T14:00:41.434Z,39.32
2019-05-12T14:03:09.466Z,38.01
2019-05-12T14:05:35.893Z,40.34
2019-05-12T14:08:04.053Z,40.05
2019-05-12T14:10:35.392Z,41.03
2019-05-12T14:13:03.476Z,40.06
2019-05-12T14:15:33.923Z,40.43
2019-05-12T14:18:03.274Z,40.78
2019-05-12T14:20:30.631Z,39.74
2019-05-12T14:22:58.523Z,38.85
2019-05-12T14:25:31.008Z,36.77
2019-05-12T14:27:59.530Z,40.92
2019-05-12T14:30:26.625Z,40.50
2019-05-12T14:32:58.992Z,40.29
2019-05-12T14:35:24.135Z,40.37
2019-05-12T14:37:53.739Z,36.86
2019-05-12T14:40:29.853Z,40.76
2019-05-12T14:42:51.296Z,38.80
2019-05-12T14:45:24.235Z,39.79
2019-05-12T14:47:48.871Z,40.96
2019-05-12T14:50:16.851Z,38.42
2019-05-12T14:52:44.728Z,38.45
2019-05-12T14:55:13.934Z,38.05
2019-05-12T14:57:43.555Z,41.89
2019-05-12T15:00:17.373Z,40.01
2019-05-12T15:02:43.691Z,38.45
2019-05-12T15:05:14.138Z,40.14
2019-05-12T15:07:50.331Z,41.49
2019-05-12T15:10:11.226Z,40.48
2019-05-12T15:12:39.132Z,41.21
2019-05-12T15:15:09.068Z,41.24
2019-05-12T15:17:37.144Z,42.67
2019-05-12T15:20:08.796Z,42.59
2019-05-12T15:22:34.817Z,42.27
2019-05-12T15:25:05.314Z,44.39
2019-05-12T15:27:44.106Z,44.45
2019-05-12T15:30:04.042Z,44.44
2019-05-12T15:32:34.013Z,44.37
2019-05-12T15:35:01.398Z,43.13
2019-05-12T15:37:35.003Z,45.94
2019-05-12T15:39:58.919Z,45.23
2019-05-12T15:42:26.911Z,45.64
2019-05-12T15:44:54.866Z,47.88
2019-05-12T15:47:27.271Z,46.04
2019-05-12T15:49:53.186Z,46.63
2019-05-12T15:52:24.592Z,45.81
2019-05-12T15:54:54.017Z,48.36
2019-05-12T15:57:24.255Z,47.65
2019-05-12T15:59:53.977Z,46.55
2019-05-12T16:02:23.286Z,48.72
2019-05-12T16:04:50.912Z,48.62
2019-05-12T16:07:18.934Z,46.74
2019-05-12T16:09:46.864Z,48.35
2019-05-12T16:12:19.885Z,49.52
2019-05-12T16:14:44.987Z,49.16
2019-05-12T16:17:16.811Z,49.05
2019-05-12T16:19:43.776Z,49.80
2019-05-12T16:22:13.797Z,48.82
2019-05-12T16:24:43.489Z,49.83
2019-05-12T16:27:11.226Z,49.82
2019-05-12T16:29:44.340Z,47.99
2019-05-12T16:32:26.041Z,48.34
2019-05-12T16:34:44.933Z,48.15
2019-05-12T16:37:09.621Z,47.46
2019-05-12T16:39:44.229Z,48.18
2019-05-12T16:42:10.445Z,47.66
2019-05-12T16:44:36.900Z,50.73
2019-05-12T16:47:04.880Z,49.61
2019-05-12T16:49:33.575Z,50.23
2019-05-12T16:52:03.649Z,50.77
2019-05-12T16:54:33.553Z,49.99
2019-05-12T16:57:06.424Z,52.09
2019-05-12T16:59:31.161Z,51.66
2019-05-12T17:02:04.291Z,53.17
2019-05-12T17:04:28.761Z,53.97
2019-05-12T17:06:56.663Z,54.45
2019-05-12T17:09:24.577Z,53.53
2019-05-12T17:11:54.998Z,53.96
2019-05-12T17:14:23.518Z,55.04
2019-05-12T17:16:51.689Z,53.59
2019-05-12T17:19:19.582Z,54.36
2019-05-12T17:21:49.318Z,56.69
2019-05-12T17:24:17.189Z,56.33
2019-05-12T17:26:45.107Z,56.66
2019-05-12T17:29:13.691Z,55.92
2019-05-12T17:31:44.243Z,56.12
2019-05-12T17:34:11.534Z,55.57
2019-05-12T17:36:39.636Z,55.66
2019-05-12T17:39:07.968Z,57.43
2019-05-12T17:41:40.404Z,58.33
2019-05-12T17:44:06.005Z,58.32
2019-05-12T17:46:38.003Z,59.26
2019-05-12T17:49:04.097Z,59.89
2019-05-12T17:51:32.104Z,60.13
2019-05-12T17:54:00.000Z,60.20
2019-05-12T17:56:34.215Z,60.88
2019-05-12T17:58:57.537Z,60.70
2019-05-12T18:01:31.262Z,60.54
2019-05-12T18:03:55.256Z,61.50
2019-05-12T18:06:26.747Z,60.02
2019-05-12T18:08:53.460Z,61.42
2019-05-12T18:11:23.931Z,61.43
2019-05-12T18:14:01.483Z,62.44
2019-05-12T18:16:22.699Z,60.82
2019-05-12T18:18:50.548Z,61.08
2019-05-12T18:21:21.828Z,62.79
2019-05-12T18:23:48.154Z,62.84
2019-05-12T18:26:16.594Z,62.54
2019-05-12T18:28:44.652Z,63.00
2019-05-12T18:31:13.829Z,64.28
2019-05-12T18:33:50.857Z,64.38
2019-05-12T18:36:14.200Z,65.15
2019-05-12T18:38:41.368Z,65.91
2019-05-12T18:41:09.289Z,65.42
2019-05-12T18:43:37.311Z,67.17
2019-05-12T18:46:08.910Z,66.77
2019-05-12T18:48:34.984Z,66.80
2019-05-12T18:51:11.582Z,67.33
2019-05-12T18:53:34.929Z,68.20
2019-05-12T18:56:04.630Z,69.18
2019-05-12T18:58:33.331Z,70.08
2019-05-12T19:01:03.455Z,70.15
2019-05-12T19:03:44.763Z,69.62
2019-05-12T19:06:03.321Z,70.24
2019-05-12T19:08:30.789Z,70.51
2019-05-12T19:10:58.737Z,71.24
2019-05-12T19:13:26.734Z,71.11
2019-05-12T19:16:02.431Z,71.61
2019-05-12T19:18:32.102Z,72.49
2019-05-12T19:20:54.284Z,72.74
2019-05-12T19:23:26.854Z,72.75
2019-05-12T19:25:54.197Z,74.29
2019-05-12T19:28:23.681Z,74.82
2019-05-12T19:30:51.299Z,73.52
2019-05-12T19:33:19.193Z,75.06
2019-05-12T19:35:50.475Z,74.60
2019-05-12T19:38:16.718Z,74.43
2019-05-12T19:40:47.312Z,75.27
2019-05-12T19:43:14.409Z,76.18
2019-05-12T19:45:43.501Z,76.43
2019-05-12T19:48:23.325Z,76.07
2019-05-12T19:50:44.452Z,76.66
2019-05-12T19:53:13.218Z,76.67
2019-05-12T19:55:40.700Z,76.61
2019-05-12T19:58:12.684Z,77.26
2019-05-12T20:00:38.249Z,78.85
2019-05-12T20:03:08.582Z,77.69
2019-05-12T20:05:35.780Z,78.85
2019-05-12T20:08:04.185Z,78.96
2019-05-12T20:14:31.385Z,79.61
2019-05-12T20:17:48.833Z,79.82
2019-05-12T20:52:55.875Z,81.15
2019-05-12T20:55:41.206Z,82.54
2019-05-12T20:58:06.337Z,83.18
2019-05-12T21:00:38.988Z,83.11
2019-05-12T21:03:08.901Z,82.64
2019-05-12T21:05:38.201Z,83.78
2019-05-12T21:11:47.774Z,84.62
2019-05-12T21:14:25.518Z,85.00
2019-05-12T21:17:03.057Z,85.01
2019-05-12T21:45:43.494Z,86.29
2019-05-12T21:58:10.094Z,87.65
2019-05-12T22:00:34.802Z,87.27
2019-05-12T22:03:08.223Z,88.04
2019-05-12T22:05:49.306Z,88.84
2019-05-12T22:08:06.548Z,88.64
2019-05-12T22:10:34.762Z,89.11
2019-05-12T22:13:06.846Z,88.82
2019-05-12T22:15:34.704Z,88.73
2019-05-12T23:42:27.036Z,98.25
